createdAt,value
2023-04-19T00:01:27.159Z,8.50
2023-04-19T00:04:38.509Z,8.51
2023-04-19T00:07:47.456Z,8.40
2023-04-19T00:10:59.209Z,8.42
2023-04-19T00:14:11.238Z,8.51
2023-04-19T00:17:18.395Z,8.53
2023-04-19T00:20:27.564Z,8.60
2023-04-19T00:23:34.531Z,8.54
2023-04-19T00:26:40.438Z,8.55
2023-04-19T00:29:47.289Z,8.43
2023-04-19T00:32:53.264Z,8.24
2023-04-19T00:36:03.028Z,8.23
2023-04-19T00:39:09.061Z,8.18
2023-04-19T00:42:24.352Z,8.17
2023-04-19T00:45:38.900Z,8.13
2023-04-19T00:48:46.026Z,8.10
2023-04-19T00:51:55.252Z,8.09
2023-04-19T00:55:02.857Z,8.10
2023-04-19T00:58:09.576Z,8.00
2023-04-19T01:01:19.887Z,8.00
2023-04-19T01:04:28.188Z,7.96
2023-04-19T01:07:38.263Z,8.06
2023-04-19T01:10:44.587Z,7.95
2023-04-19T01:13:51.404Z,7.85
2023-04-19T01:17:01.062Z,7.88
2023-04-19T01:20:11.130Z,7.89
2023-04-19T01:23:19.650Z,7.90
2023-04-19T01:26:27.672Z,7.89
2023-04-19T01:29:35.222Z,7.96
2023-04-19T01:32:42.001Z,7.96
2023-04-19T01:35:47.970Z,7.98
2023-04-19T01:38:57.387Z,7.89
2023-04-19T01:42:04.622Z,7.85
2023-04-19T01:45:13.320Z,7.83
2023-04-19T01:48:19.268Z,7.76
2023-04-19T01:51:31.617Z,7.76
2023-04-19T01:54:44.341Z,7.72
2023-04-19T01:57:53.350Z,7.65
2023-04-19T02:01:06.834Z,7.58
2023-04-19T02:04:16.907Z,7.56
2023-04-19T02:07:25.801Z,7.53
2023-04-19T02:10:34.651Z,7.52
2023-04-19T02:13:41.490Z,7.54
2023-04-19T02:16:50.761Z,7.41
2023-04-19T02:19:58.025Z,7.47
2023-04-19T02:23:09.027Z,7.41
2023-04-19T02:26:18.523Z,7.43
2023-04-19T02:29:24.422Z,7.34
2023-04-19T02:32:32.229Z,7.25
2023-04-19T02:35:38.335Z,7.18
2023-04-19T02:38:45.140Z,7.11
2023-04-19T02:42:05.370Z,7.09
2023-04-19T02:45:30.885Z,7.04
2023-04-19T02:48:36.749Z,7.06
2023-04-19T02:51:43.494Z,7.07
2023-04-19T02:54:53.745Z,7.15
2023-04-19T02:58:03.604Z,7.15
2023-04-19T03:01:10.256Z,7.17
2023-04-19T03:04:17.579Z,7.15
2023-04-19T03:07:34.067Z,7.09
2023-04-19T03:10:41.043Z,7.12
2023-04-19T03:13:50.964Z,7.09
2023-04-19T03:16:57.823Z,7.06
2023-04-19T03:20:13.550Z,7.01
2023-04-19T03:23:20.722Z,6.95
2023-04-19T03:26:28.995Z,6.98
2023-04-19T03:29:39.944Z,6.88
2023-04-19T03:32:55.379Z,6.91
2023-04-19T03:36:06.723Z,6.90
2023-04-19T03:39:13.830Z,6.99
2023-04-19T03:42:23.175Z,6.96
2023-04-19T03:46:06.802Z,6.96
2023-04-19T03:49:16.415Z,6.93
2023-04-19T03:52:26.155Z,6.92
2023-04-19T03:55:33.130Z,6.88
2023-04-19T03:58:54.833Z,6.73
2023-04-19T04:02:05.447Z,6.70
2023-04-19T04:05:12.993Z,6.70
2023-04-19T04:08:21.090Z,6.70
2023-04-19T04:11:27.009Z,6.67
2023-04-19T04:14:43.202Z,6.41
2023-04-19T04:17:56.771Z,6.48
2023-04-19T04:21:05.911Z,6.58
2023-04-19T04:24:14.540Z,6.53
2023-04-19T04:27:32.285Z,6.44
2023-04-19T04:30:38.935Z,6.38
2023-04-19T04:33:50.283Z,6.30
2023-04-19T04:36:59.025Z,6.33
2023-04-19T04:40:08.172Z,6.46
2023-04-19T04:43:14.499Z,6.47
2023-04-19T04:46:31.555Z,6.50
2023-04-19T04:49:40.378Z,6.46
2023-04-19T04:52:47.749Z,6.44
2023-04-19T04:56:10.423Z,6.49
2023-04-19T04:59:17.152Z,6.45
2023-04-19T05:02:27.324Z,6.55
2023-04-19T05:05:37.631Z,6.71
2023-04-19T05:08:43.586Z,6.61
2023-04-19T05:12:06.925Z,6.56
2023-04-19T05:15:14.145Z,6.68
2023-04-19T05:18:27.561Z,6.70
2023-04-19T05:21:37.516Z,6.54
2023-04-19T05:24:46.171Z,6.65
2023-04-19T05:27:59.786Z,6.60
2023-04-19T05:31:13.143Z,6.68
2023-04-19T05:34:30.653Z,6.63
2023-04-19T05:37:42.455Z,6.72
2023-04-19T05:40:54.409Z,6.68
2023-04-19T05:44:05.351Z,6.74
2023-04-19T05:47:11.992Z,6.84
2023-04-19T05:50:39.902Z,6.78
2023-04-19T05:54:16.083Z,6.72
2023-04-19T05:57:26.435Z,6.77
2023-04-19T06:00:32.887Z,6.76
2023-04-19T06:03:57.786Z,6.67
2023-04-19T06:07:21.719Z,6.76
2023-04-19T06:10:52.667Z,6.75
2023-04-19T06:14:01.918Z,6.69
2023-04-19T06:17:09.121Z,6.84
2023-04-19T06:20:16.036Z,6.90
2023-04-19T06:23:23.834Z,6.77
2023-04-19T06:26:39.380Z,6.68
2023-04-19T06:29:51.209Z,6.50
2023-04-19T06:32:57.534Z,6.25
2023-04-19T06:36:04.312Z,6.23
2023-04-19T06:39:11.080Z,6.24
2023-04-19T06:42:21.308Z,6.24
2023-04-19T06:45:27.483Z,6.29
2023-04-19T06:48:34.517Z,5.99
2023-04-19T06:51:43.213Z,6.10
2023-04-19T06:54:52.224Z,6.30
2023-04-19T06:58:11.343Z,6.39
2023-04-19T07:01:19.383Z,6.48
2023-04-19T07:04:25.476Z,6.70
2023-04-19T07:07:33.571Z,6.85
2023-04-19T07:10:39.616Z,7.14
2023-04-19T07:13:49.044Z,7.30
2023-04-19T07:16:56.865Z,7.31
2023-04-19T07:20:04.350Z,7.40
2023-04-19T07:23:10.775Z,7.47
2023-04-19T07:26:18.334Z,7.39
2023-04-19T07:29:26.853Z,7.41
2023-04-19T07:32:34.730Z,7.03
2023-04-19T07:35:42.828Z,6.99
2023-04-19T07:38:49.582Z,6.77
2023-04-19T07:41:55.537Z,6.71
2023-04-19T07:45:10.102Z,6.52
2023-04-19T07:48:16.517Z,6.33
2023-04-19T07:51:24.955Z,6.27
2023-04-19T07:54:31.756Z,6.22
2023-04-19T07:57:38.619Z,6.18
2023-04-19T08:00:47.142Z,6.09
2023-04-19T08:03:54.225Z,5.95
2023-04-19T08:07:00.403Z,6.03
2023-04-19T08:10:08.526Z,5.88
2023-04-19T08:13:14.832Z,6.00
2023-04-19T08:17:09.032Z,6.23
2023-04-19T08:19:53.331Z,6.22
2023-04-19T08:23:04.652Z,6.27
2023-04-19T08:26:17.011Z,6.42
2023-04-19T08:29:24.032Z,6.68
2023-04-19T08:32:32.556Z,7.46
2023-04-19T08:35:39.349Z,8.12
2023-04-19T08:38:49.193Z,8.86
2023-04-19T08:42:18.119Z,9.04
2023-04-19T08:45:36.095Z,9.24
2023-04-19T08:48:47.937Z,10.10
2023-04-19T08:51:58.123Z,10.25
2023-04-19T08:55:07.383Z,9.53
2023-04-19T08:58:23.435Z,9.33
2023-04-19T09:01:41.517Z,8.91
2023-04-19T09:04:51.809Z,8.52
2023-04-19T09:08:25.284Z,8.34
2023-04-19T09:11:41.611Z,8.27
2023-04-19T09:15:01.108Z,8.20
2023-04-19T09:18:11.173Z,8.14
2023-04-19T09:21:32.200Z,8.07
2023-04-19T09:27:53.625Z,7.86
2023-04-19T09:31:10.946Z,7.77
2023-04-19T09:34:29.090Z,7.98
2023-04-19T09:41:10.957Z,7.56
2023-04-19T09:47:30.374Z,7.76
2023-04-19T09:50:51.369Z,7.72
2023-04-19T09:54:06.857Z,7.12
2023-04-19T09:57:13.233Z,6.93
2023-04-19T10:00:21.932Z,6.65
2023-04-19T10:03:34.266Z,6.57
2023-04-19T10:07:06.949Z,6.31
2023-04-19T10:10:20.475Z,6.04
2023-04-19T10:13:29.630Z,6.13
2023-04-19T10:16:37.035Z,6.09
2023-04-19T10:19:51.811Z,5.92
2023-04-19T10:22:58.425Z,6.03
2023-04-19T10:26:08.220Z,5.81
2023-04-19T10:29:16.670Z,5.86
2023-04-19T10:32:24.784Z,5.83
2023-04-19T10:35:38.284Z,5.68
2023-04-19T10:38:48.798Z,5.53
2023-04-19T10:42:03.276Z,5.56
2023-04-19T10:45:37.632Z,5.46
2023-04-19T10:48:56.911Z,5.32
2023-04-19T10:52:03.787Z,5.31
2023-04-19T10:55:10.728Z,5.46
2023-04-19T10:58:20.122Z,5.58
2023-04-19T11:01:40.573Z,5.43
2023-04-19T11:05:06.401Z,5.57
2023-04-19T11:08:12.776Z,5.65
2023-04-19T11:11:20.110Z,5.75
2023-04-19T11:14:30.577Z,5.85
2023-04-19T11:17:38.909Z,5.73
2023-04-19T11:20:46.708Z,5.77
2023-04-19T11:24:09.361Z,5.97
2023-04-19T11:27:15.320Z,5.97
2023-04-19T11:30:31.741Z,5.80
2023-04-19T11:33:39.180Z,5.74
2023-04-19T11:36:54.368Z,5.79
2023-04-19T11:40:01.562Z,5.67
2023-04-19T11:43:09.509Z,5.67
2023-04-19T11:46:18.484Z,5.29
2023-04-19T11:49:30.643Z,5.24
2023-04-19T11:52:39.328Z,5.17
2023-04-19T11:55:48.898Z,5.14
2023-04-19T11:58:54.830Z,5.01
2023-04-19T12:02:12.848Z,4.90
2023-04-19T12:05:20.150Z,4.77
2023-04-19T12:08:39.385Z,4.80
2023-04-19T12:11:50.509Z,4.99
2023-04-19T12:14:57.328Z,4.98
2023-04-19T12:18:06.452Z,5.14
2023-04-19T12:21:14.405Z,4.97
2023-04-19T12:24:20.628Z,5.03
2023-04-19T12:27:27.688Z,4.95
2023-04-19T12:30:35.613Z,5.03
2023-04-19T12:33:45.066Z,5.02
2023-04-19T12:36:51.135Z,4.96
2023-04-19T12:39:57.886Z,5.08
2023-04-19T12:43:03.901Z,4.97
2023-04-19T12:46:10.721Z,4.97
2023-04-19T12:49:22.502Z,4.86
2023-04-19T12:52:29.364Z,4.74
2023-04-19T12:55:35.672Z,4.86
2023-04-19T12:58:42.835Z,4.94
2023-04-19T13:01:48.976Z,4.88
2023-04-19T13:04:58.493Z,4.73
2023-04-19T13:08:04.576Z,4.50
2023-04-19T13:11:11.306Z,4.82
2023-04-19T13:14:17.608Z,4.76
2023-04-19T13:17:26.628Z,4.77
2023-04-19T13:20:35.289Z,4.87
2023-04-19T13:23:42.121Z,4.60
2023-04-19T13:26:49.044Z,4.53
2023-04-19T13:29:58.006Z,4.53
2023-04-19T13:33:04.249Z,4.57
2023-04-19T13:36:14.586Z,4.62
2023-04-19T13:39:20.598Z,4.63
2023-04-19T13:42:29.033Z,4.49
2023-04-19T13:45:36.425Z,4.29
2023-04-19T13:48:43.509Z,4.13
2023-04-19T13:51:52.366Z,4.10
2023-04-19T13:54:59.115Z,4.01
2023-04-19T13:58:06.571Z,4.11
2023-04-19T14:01:13.891Z,3.90
2023-04-19T14:04:20.206Z,4.01
2023-04-19T14:07:29.906Z,3.80
2023-04-19T14:10:36.406Z,3.97
2023-04-19T14:13:45.726Z,3.92
2023-04-19T14:16:51.713Z,3.84
2023-04-19T14:20:02.218Z,3.83
2023-04-19T14:23:11.702Z,3.84
2023-04-19T14:26:19.091Z,3.80
2023-04-19T14:29:25.182Z,3.86
2023-04-19T14:32:32.451Z,3.86
2023-04-19T14:35:47.223Z,3.79
2023-04-19T14:38:56.640Z,3.69
2023-04-19T14:42:08.596Z,3.65
2023-04-19T14:45:31.167Z,3.55
2023-04-19T14:48:37.266Z,3.65
2023-04-19T14:51:44.084Z,3.55
2023-04-19T14:54:52.620Z,3.58
2023-04-19T14:57:59.407Z,3.68
2023-04-19T15:01:15.188Z,3.77
2023-04-19T15:04:22.530Z,3.78
2023-04-19T15:07:29.321Z,3.68
2023-04-19T15:10:39.901Z,3.63
2023-04-19T15:13:45.802Z,3.64
2023-04-19T15:16:52.578Z,3.70
2023-04-19T15:19:58.922Z,3.73
2023-04-19T15:23:09.147Z,3.82
2023-04-19T15:26:17.766Z,3.88
2023-04-19T15:29:24.719Z,4.04
2023-04-19T15:32:34.598Z,4.09
2023-04-19T15:35:41.629Z,3.98
2023-04-19T15:38:47.680Z,3.96
2023-04-19T15:41:59.558Z,4.09
2023-04-19T15:45:05.632Z,3.98
2023-04-19T15:48:12.637Z,3.75
2023-04-19T15:51:19.031Z,3.92
2023-04-19T15:54:25.930Z,3.80
2023-04-19T15:57:34.773Z,3.87
2023-04-19T16:00:41.605Z,3.83
2023-04-19T16:03:48.342Z,3.79
2023-04-19T16:06:55.717Z,3.69
2023-04-19T16:10:10.679Z,3.61
2023-04-19T16:13:20.994Z,3.66
2023-04-19T16:16:27.335Z,3.69
2023-04-19T16:19:34.136Z,3.66
2023-04-19T16:22:40.265Z,3.67
2023-04-19T16:25:47.162Z,3.67
2023-04-19T16:29:18.807Z,3.69
2023-04-19T16:32:26.313Z,3.70
2023-04-19T16:35:32.788Z,3.72
2023-04-19T16:38:39.729Z,3.79
2023-04-19T16:41:45.683Z,3.98
2023-04-19T16:44:55.157Z,4.07
2023-04-19T16:48:05.081Z,4.02
2023-04-19T16:51:11.952Z,3.94
2023-04-19T16:54:18.166Z,4.01
2023-04-19T16:57:26.385Z,3.97
2023-04-19T17:00:35.449Z,3.88
2023-04-19T17:03:42.468Z,3.91
2023-04-19T17:06:49.181Z,3.93
2023-04-19T17:09:56.174Z,3.91
2023-04-19T17:13:07.934Z,4.03
2023-04-19T17:16:17.664Z,3.91
2023-04-19T17:19:23.998Z,3.94
2023-04-19T17:22:31.033Z,3.91
2023-04-19T17:25:36.997Z,3.92
2023-04-19T17:28:44.701Z,4.02
2023-04-19T17:32:03.464Z,3.98
2023-04-19T17:35:16.132Z,4.26
2023-04-19T17:38:22.622Z,4.37
2023-04-19T17:41:29.383Z,4.33
2023-04-19T17:44:35.344Z,4.28
2023-04-19T17:47:46.934Z,4.37
2023-04-19T17:50:56.487Z,4.30
2023-04-19T17:54:03.381Z,4.30
2023-04-19T17:57:09.622Z,4.40
2023-04-19T18:00:18.261Z,4.44
2023-04-19T18:03:26.929Z,4.41
2023-04-19T18:06:33.848Z,4.36
2023-04-19T18:09:48.960Z,4.41
2023-04-19T18:12:56.156Z,4.46
2023-04-19T18:16:03.749Z,4.56
2023-04-19T18:19:13.206Z,4.54
2023-04-19T18:22:39.712Z,4.76
2023-04-19T18:25:59.494Z,4.67
2023-04-19T18:29:05.566Z,4.49
2023-04-19T18:32:12.491Z,4.78
2023-04-19T18:35:22.211Z,4.70
2023-04-19T18:38:29.251Z,4.69
2023-04-19T18:41:35.858Z,4.70
2023-04-19T18:44:53.916Z,4.63
2023-04-19T18:48:01.010Z,4.68
2023-04-19T18:51:16.019Z,4.74
2023-04-19T18:54:22.424Z,4.79
2023-04-19T18:57:30.629Z,4.79
2023-04-19T19:00:40.062Z,4.79
2023-04-19T19:04:12.769Z,4.80
2023-04-19T19:07:34.927Z,4.89
2023-04-19T19:13:51.856Z,4.86
2023-04-19T19:16:58.899Z,4.89
2023-04-19T19:20:05.341Z,4.81
2023-04-19T19:23:15.903Z,4.82
2023-04-19T19:26:35.565Z,4.92
2023-04-19T19:29:46.392Z,4.95
2023-04-19T19:32:57.978Z,4.93
2023-04-19T19:36:05.373Z,4.99
2023-04-19T19:39:14.209Z,5.10
2023-04-19T19:42:21.917Z,4.98
2023-04-19T19:45:33.137Z,5.07
2023-04-19T19:48:42.503Z,5.13
2023-04-19T19:51:58.496Z,5.16
2023-04-19T19:55:12.689Z,5.10
2023-04-19T20:01:33.548Z,4.84
2023-04-19T20:04:39.863Z,4.75
2023-04-19T20:08:01.266Z,4.87
2023-04-19T20:11:11.765Z,5.03
2023-04-19T20:14:18.554Z,5.02
2023-04-19T20:17:24.489Z,4.93
2023-04-19T20:20:31.803Z,4.99
2023-04-19T20:23:41.079Z,5.08
2023-04-19T20:26:50.835Z,5.14
2023-04-19T20:29:56.880Z,5.11
2023-04-19T20:33:04.263Z,5.12
2023-04-19T20:36:10.289Z,5.12
2023-04-19T20:39:19.291Z,5.11
2023-04-19T20:42:31.213Z,5.17
2023-04-19T20:45:37.912Z,5.17
2023-04-19T20:48:43.930Z,5.24
2023-04-19T20:51:51.969Z,5.27
2023-04-19T20:55:03.561Z,5.17
2023-04-19T20:58:15.108Z,5.12
2023-04-19T21:01:23.176Z,5.18
2023-04-19T21:04:31.342Z,5.21
2023-04-19T21:07:37.373Z,5.22
2023-04-19T21:10:44.062Z,5.23
2023-04-19T21:13:52.861Z,5.16
2023-04-19T21:16:59.839Z,5.19
2023-04-19T21:20:12.317Z,5.31
2023-04-19T21:23:19.323Z,5.37
2023-04-19T21:26:43.728Z,5.36
2023-04-19T21:30:01.211Z,5.24
2023-04-19T21:33:10.704Z,5.24
2023-04-19T21:36:17.523Z,5.31
2023-04-19T21:39:23.380Z,5.32
2023-04-19T21:42:30.225Z,5.38
2023-04-19T21:45:38.800Z,5.38
2023-04-19T21:48:49.222Z,5.48
2023-04-19T21:51:57.115Z,5.55
2023-04-19T21:55:04.022Z,5.50
2023-04-19T21:58:14.092Z,5.39
2023-04-19T22:01:23.615Z,5.40
2023-04-19T22:04:31.384Z,5.41
2023-04-19T22:07:38.946Z,5.51
2023-04-19T22:10:45.110Z,5.62
2023-04-19T22:13:52.033Z,5.58
2023-04-19T22:17:03.680Z,5.48
2023-04-19T22:20:13.106Z,5.33
2023-04-19T22:23:24.147Z,5.43
2023-04-19T22:26:31.107Z,5.49
2023-04-19T22:29:37.439Z,5.50
2023-04-19T22:32:46.943Z,5.54
2023-04-19T22:35:52.866Z,5.62
2023-04-19T22:38:59.728Z,5.59
2023-04-19T22:42:05.636Z,5.62
2023-04-19T22:45:13.948Z,5.62
2023-04-19T22:48:22.775Z,5.57
2023-04-19T22:51:29.714Z,5.61
2023-04-19T22:54:35.602Z,5.55
2023-04-19T22:57:43.328Z,5.54
2023-04-19T23:00:49.398Z,5.39
2023-04-19T23:03:58.833Z,5.38
2023-04-19T23:07:05.076Z,5.40
2023-04-19T23:10:13.619Z,5.36
2023-04-19T23:13:19.674Z,5.38
2023-04-19T23:16:29.104Z,5.33
2023-04-19T23:19:39.088Z,5.32
2023-04-19T23:22:46.218Z,5.30
2023-04-19T23:25:52.210Z,5.32
2023-04-19T23:28:59.285Z,5.30
2023-04-19T23:32:05.265Z,5.35
2023-04-19T23:35:20.651Z,5.38
2023-04-19T23:38:26.625Z,5.37
2023-04-19T23:41:33.375Z,5.42
2023-04-19T23:44:42.694Z,5.41
2023-04-19T23:47:50.725Z,5.23
2023-04-19T23:50:59.383Z,5.23
2023-04-19T23:54:06.106Z,5.29
2023-04-19T23:57:12.079Z,5.32
